Time;durP1;ratioP1;P1;durP2;ratioP2;P2;SDS_P1;SDS_P2;PMS_P1;PMS_P2;Temp;Humidity;BMP_temperature;BMP_pressure;BME280_temperature;BME280_humidity;BME280_pressure;Samples;Min_cycle;Max_cycle;Signal;HPM_P1;HPM_P2
2024/01/01 00:02:21;;;;;;;0.20;0.20;;;;;;;13.82;61.86;99687.34;5080546;28;20077;-70
2024/01/01 00:04:46;;;;;;;0.35;0.35;;;;;;;14.39;59.28;99706.63;5082324;28;20575;-72
2024/01/01 00:07:12;;;;;;;0.20;0.20;;;;;;;13.50;62.40;99705.78;5098435;28;20034;-72
2024/01/01 00:09:37;;;;;;;0.20;0.20;;;;;;;13.87;61.67;99700.88;5101825;28;20088;-71
2024/01/01 00:12:03;;;;;;;0.20;0.20;;;;;;;13.47;62.24;99703.63;5104978;28;20429;-71
2024/01/01 00:14:28;;;;;;;0.20;0.20;;;;;;;13.64;62.06;99710.34;5104720;28;20035;-73
2024/01/01 00:16:53;;;;;;;0.20;0.20;;;;;;;13.20;63.55;99714.72;5105683;28;20570;-71
2024/01/01 00:19:19;;;;;;;0.22;0.22;;;;;;;13.86;61.99;99697.34;5105331;28;20043;-71
2024/01/01 00:21:44;;;;;;;0.20;0.20;;;;;;;13.83;62.00;99703.31;5110727;28;20089;-72
2024/01/01 00:24:10;;;;;;;0.30;0.30;;;;;;;14.03;61.47;99703.22;5104018;28;20081;-71
2024/01/01 00:26:35;;;;;;;0.20;0.20;;;;;;;14.01;61.28;99686.50;5103428;28;20063;-72
2024/01/01 00:29:02;;;;;;;0.20;0.20;;;;;;;14.10;61.08;99697.53;5105201;28;20032;-72
2024/01/01 00:31:27;;;;;;;0.20;0.20;;;;;;;14.24;60.03;99692.34;5108413;28;20574;-72
2024/01/01 00:33:53;;;;;;;0.30;0.30;;;;;;;14.55;59.29;99691.97;5107165;28;20034;-71
2024/01/01 00:36:18;;;;;;;0.30;0.30;;;;;;;14.71;58.66;99692.69;5105675;28;20124;-72
2024/01/01 00:38:44;;;;;;;0.20;0.20;;;;;;;13.89;59.68;99696.81;5110925;28;20114;-73
2024/01/01 00:41:16;;;;;;;0.30;0.30;;;;;;;14.49;58.61;99684.16;5107393;28;20043;-71
2024/01/01 00:43:43;;;;;;;0.30;0.30;;;;;;;14.35;57.72;99692.06;5102781;28;20063;-71
2024/01/01 00:46:09;;;;;;;0.30;0.30;;;;;;;14.34;58.02;99689.63;5103921;28;20019;-71
2024/01/01 00:48:34;;;;;;;0.30;0.30;;;;;;;14.47;57.79;99691.72;5102544;28;20530;-71
2024/01/01 00:50:59;;;;;;;0.20;0.20;;;;;;;13.94;59.19;99707.59;5104530;28;20028;-72
2024/01/01 00:53:25;;;;;;;0.20;0.20;;;;;;;13.61;61.60;99685.78;5102424;28;20063;-72
2024/01/01 00:55:50;;;;;;;0.38;0.38;;;;;;;13.76;60.29;99686.56;5103437;28;20457;-72
2024/01/01 00:58:15;;;;;;;0.30;0.30;;;;;;;13.47;61.14;99690.13;5104449;28;20130;-71
2024/01/01 01:00:41;;;;;;;0.30;0.30;;;;;;;13.53;60.68;99687.16;5102951;28;20020;-71
2024/01/01 01:03:06;;;;;;;0.30;0.30;;;;;;;13.58;60.81;99695.25;5085445;28;20069;-73
2024/01/01 01:05:31;;;;;;;0.20;0.20;;;;;;;13.83;59.48;99687.09;5103882;28;20677;-71
2024/01/01 01:07:58;;;;;;;0.40;0.40;;;;;;;14.51;57.86;99687.38;5104708;28;20916;-71
2024/01/01 01:10:24;;;;;;;0.30;0.30;;;;;;;13.68;60.40;99689.03;5104331;28;20039;-70
2024/01/01 01:12:53;;;;;;;0.40;0.40;;;;;;;13.85;59.78;99679.53;5103885;28;20470;-72
2024/01/01 01:15:19;;;;;;;0.30;0.30;;;;;;;13.64;59.77;99687.97;5086575;28;20122;-72
2024/01/01 01:17:45;;;;;;;0.30;0.30;;;;;;;13.33;60.35;99699.84;5102390;28;20515;-71
2024/01/01 01:20:10;;;;;;;0.40;0.40;;;;;;;12.74;62.65;99697.63;5103309;28;20129;-73
2024/01/01 01:22:36;;;;;;;0.20;0.20;;;;;;;12.93;61.56;99747.28;5103246;28;20131;-72
2024/01/01 01:25:02;;;;;;;0.35;0.35;;;;;;;12.90;61.88;99711.94;5101984;28;20024;-71
2024/01/01 01:27:27;;;;;;;0.45;0.45;;;;;;;13.62;60.09;99707.09;5103960;28;20031;-70
2024/01/01 01:29:52;;;;;;;0.20;0.20;;;;;;;13.94;59.20;99710.28;5104263;28;20036;-71
2024/01/01 01:32:18;;;;;;;0.30;0.30;;;;;;;13.10;61.26;99722.78;5104036;28;20404;-71
2024/01/01 01:34:43;;;;;;;0.20;0.20;;;;;;;13.38;60.32;99719.56;5105839;28;20041;-74
2024/01/01 01:37:09;;;;;;;0.30;0.30;;;;;;;13.39;60.33;99715.78;5100104;28;20131;-72
2024/01/01 01:39:35;;;;;;;0.20;0.20;;;;;;;13.14;60.94;99713.09;5086477;28;20047;-71
2024/01/01 01:42:00;;;;;;;0.30;0.30;;;;;;;13.46;60.21;99729.00;5092775;28;20115;-70
2024/01/01 01:44:26;;;;;;;0.20;0.20;;;;;;;13.38;60.92;99707.97;5092843;28;20488;-70
2024/01/01 01:46:52;;;;;;;0.28;0.28;;;;;;;13.34;60.56;99718.50;5092732;28;20036;-70
2024/01/01 01:49:17;;;;;;;0.30;0.30;;;;;;;13.12;61.83;99716.06;5092810;28;20047;-71
2024/01/01 01:51:47;;;;;;;0.30;0.30;;;;;;;13.70;60.50;99730.06;5092995;28;20059;-72
2024/01/01 01:54:12;;;;;;;0.20;0.20;;;;;;;12.86;61.70;99744.03;5092578;28;20040;-70
2024/01/01 01:56:38;;;;;;;0.20;0.20;;;;;;;13.09;62.01;99740.03;5109666;28;20053;-71
2024/01/01 01:59:03;;;;;;;0.30;0.30;;;;;;;12.85;62.98;99747.00;5112878;28;20035;-70
2024/01/01 02:01:29;;;;;;;0.40;0.40;;;;;;;12.53;64.29;99744.47;5093802;28;20126;-72
2024/01/01 02:03:55;;;;;;;0.20;0.20;;;;;;;13.14;62.04;99726.56;5094770;28;20031;-71
2024/01/01 02:06:20;;;;;;;0.30;0.30;;;;;;;13.40;61.43;99730.09;5113087;28;20035;-71
2024/01/01 02:08:46;;;;;;;0.30;0.30;;;;;;;13.17;61.77;99718.75;5092613;28;20032;-72
2024/01/01 02:11:11;;;;;;;0.25;0.25;;;;;;;13.87;60.13;99726.00;5092279;28;20036;-71
2024/01/01 02:13:37;;;;;;;0.20;0.20;;;;;;;13.92;59.50;99725.16;5092205;28;20123;-71
2024/01/01 02:16:02;;;;;;;0.30;0.30;;;;;;;13.41;61.17;99726.28;5092294;28;20042;-71
2024/01/01 02:18:28;;;;;;;0.40;0.40;;;;;;;13.68;61.14;99721.44;5092759;28;20110;-71
2024/01/01 02:20:55;;;;;;;0.30;0.30;;;;;;;13.78;60.35;99722.22;5092219;28;20047;-72
2024/01/01 02:23:20;;;;;;;0.20;0.20;;;;;;;14.21;59.11;99731.53;5092131;28;20048;-70
2024/01/01 02:25:46;;;;;;;0.28;0.28;;;;;;;13.96;59.80;99734.31;5092385;28;20064;-70
2024/01/01 02:28:11;;;;;;;0.20;0.20;;;;;;;13.67;59.63;99744.09;5108986;28;20045;-72
2024/01/01 02:30:37;;;;;;;0.35;0.35;;;;;;;13.99;59.96;99725.69;5112195;28;20023;-71
2024/01/01 02:33:07;;;;;;;0.40;0.40;;;;;;;13.17;62.01;99736.81;5093285;28;20039;-71
2024/01/01 02:35:33;;;;;;;0.30;0.30;;;;;;;13.74;60.51;99728.41;5112131;28;20031;-71
2024/01/01 02:37:59;;;;;;;0.20;0.20;;;;;;;13.50;60.49;99719.28;5095742;28;20143;-70
2024/01/01 02:40:24;;;;;;;0.30;0.30;;;;;;;13.65;60.38;99717.38;5111589;28;20581;-71
2024/01/01 02:42:49;;;;;;;0.20;0.20;;;;;;;13.49;61.49;99728.44;5111937;28;20823;-70
2024/01/01 02:45:15;;;;;;;0.20;0.20;;;;;;;13.82;60.48;99731.38;5111885;28;20035;-71
2024/01/01 02:47:40;;;;;;;0.17;0.17;;;;;;;12.61;63.50;99716.22;5111916;28;20031;-71
2024/01/01 02:50:06;;;;;;;0.38;0.38;;;;;;;13.15;62.18;99734.38;5111974;28;20515;-70
2024/01/01 02:52:31;;;;;;;0.40;0.40;;;;;;;14.15;58.92;99732.66;5092906;28;20063;-70
2024/01/01 02:54:57;;;;;;;0.30;0.30;;;;;;;13.00;63.07;99742.44;5108638;28;20026;-71
2024/01/01 02:57:25;;;;;;;0.20;0.20;;;;;;;13.69;61.08;99734.66;5091769;28;20103;-69
2024/01/01 02:59:51;;;;;;;0.50;0.50;;;;;;;13.35;62.12;99744.38;5089711;28;20092;-71
2024/01/01 03:02:18;;;;;;;0.30;0.30;;;;;;;12.65;65.18;99763.94;5091372;28;20036;-71
2024/01/01 03:04:44;;;;;;;0.35;0.35;;;;;;;12.20;66.32;99755.66;5091240;28;20135;-72
2024/01/01 03:07:09;;;;;;;0.35;0.35;;;;;;;12.96;63.95;99754.84;5094535;28;20118;-70
2024/01/01 03:09:35;;;;;;;0.30;0.30;;;;;;;12.93;65.75;99744.56;5097908;28;20114;-70
2024/01/01 03:12:01;;;;;;;0.40;0.40;;;;;;;12.76;65.93;99741.31;5110677;28;20043;-71
2024/01/01 03:14:26;;;;;;;0.30;0.30;;;;;;;12.98;65.57;99736.50;5110254;28;20047;-70
2024/01/01 03:16:51;;;;;;;0.40;0.40;;;;;;;12.41;67.24;99735.00;5110381;28;20515;-72
2024/01/01 03:19:17;;;;;;;0.30;0.30;;;;;;;13.35;64.75;99744.38;5110225;28;20411;-70
2024/01/01 03:21:42;;;;;;;0.30;0.30;;;;;;;13.23;63.89;99737.66;5110321;28;20089;-72
2024/01/01 03:24:07;;;;;;;0.32;0.32;;;;;;;12.78;66.14;99743.72;5109669;28;20078;-70
2024/01/01 03:26:34;;;;;;;0.30;0.30;;;;;;;13.01;65.39;99748.66;5109375;28;20504;-72
2024/01/01 03:29:00;;;;;;;0.30;0.30;;;;;;;12.49;67.59;99729.09;5091666;28;20457;-70
2024/01/01 03:31:25;;;;;;;0.40;0.40;;;;;;;12.49;68.06;99739.88;5090779;28;20051;-72
2024/01/01 03:33:51;;;;;;;0.30;0.30;;;;;;;12.87;67.10;99744.84;5110545;28;20132;-70
2024/01/01 03:36:16;;;;;;;0.40;0.40;;;;;;;12.53;68.48;99747.19;5109803;28;20390;-69
2024/01/01 03:38:41;;;;;;;0.22;0.22;;;;;;;12.60;67.92;99741.56;5109613;28;20031;-71
2024/01/01 03:41:07;;;;;;;0.40;0.40;;;;;;;12.29;69.84;99741.44;5109965;28;20050;-70
2024/01/01 03:43:33;;;;;;;0.20;0.20;;;;;;;13.55;65.42;99735.47;5109720;28;20487;-71
2024/01/01 03:45:58;;;;;;;0.10;0.10;;;;;;;13.34;66.22;99737.38;5083153;28;20506;-70
2024/01/01 03:48:23;;;;;;;0.40;0.40;;;;;;;12.94;68.15;99745.38;5089621;28;20030;-71
2024/01/01 03:50:49;;;;;;;0.30;0.30;;;;;;;13.17;67.39;99739.50;5089116;28;20479;-70
2024/01/01 03:53:14;;;;;;;0.40;0.40;;;;;;;13.20;67.38;99731.72;5088874;28;20109;-72
2024/01/01 03:55:39;;;;;;;0.30;0.30;;;;;;;12.95;68.45;99744.34;5097214;28;20507;-70
2024/01/01 03:58:05;;;;;;;0.30;0.30;;;;;;;13.07;67.97;99739.53;5109463;28;20035;-70
2024/01/01 04:00:30;;;;;;;0.30;0.30;;;;;;;12.78;69.29;99736.47;5110124;28;20490;-70
2024/01/01 04:02:56;;;;;;;0.30;0.30;;;;;;;12.98;68.71;99739.22;5109241;28;20043;-71
2024/01/01 04:05:21;;;;;;;0.25;0.25;;;;;;;13.28;67.52;99724.97;5109559;28;20047;-71
2024/01/01 04:07:46;;;;;;;0.20;0.20;;;;;;;13.09;66.80;99718.47;5109463;28;20058;-71
2024/01/01 04:10:12;;;;;;;0.20;0.20;;;;;;;12.42;70.32;99740.16;5109204;28;20047;-71
2024/01/01 04:12:37;;;;;;;0.30;0.30;;;;;;;11.99;72.72;99732.41;5110365;28;20458;-71
2024/01/01 04:15:03;;;;;;;0.13;0.13;;;;;;;12.76;69.59;99732.41;5090970;28;20483;-72
2024/01/01 04:17:29;;;;;;;0.30;0.30;;;;;;;13.15;68.53;99728.19;5109192;28;20085;-70
2024/01/01 04:19:55;;;;;;;0.38;0.38;;;;;;;12.87;69.30;99734.88;5109457;28;20043;-71
2024/01/01 04:22:20;;;;;;;0.20;0.20;;;;;;;12.93;69.41;99747.28;5109304;28;20421;-70
2024/01/01 04:24:46;;;;;;;0.28;0.28;;;;;;;12.67;70.27;99745.63;5109071;28;20406;-69
2024/01/01 04:27:11;;;;;;;0.20;0.20;;;;;;;12.57;71.44;99740.19;5109306;28;20047;-69
2024/01/01 04:29:37;;;;;;;0.30;0.30;;;;;;;13.08;68.70;99738.44;5089344;28;20113;-72
2024/01/01 04:32:02;;;;;;;0.25;0.25;;;;;;;12.42;73.79;99739.31;5106646;28;20039;-72
2024/01/01 04:34:28;;;;;;;0.13;0.13;;;;;;;13.04;71.17;99737.34;5090841;28;20050;-72
2024/01/01 04:36:53;;;;;;;0.30;0.30;;;;;;;12.82;71.46;99737.56;5109624;28;20048;-70
2024/01/01 04:39:19;;;;;;;0.30;0.30;;;;;;;12.70;72.63;99747.75;5108811;28;20498;-71
2024/01/01 04:41:44;;;;;;;0.30;0.30;;;;;;;12.57;73.05;99745.56;5109012;28;20545;-72
2024/01/01 04:44:10;;;;;;;0.22;0.22;;;;;;;12.42;74.17;99740.16;5109264;28;20536;-71
2024/01/01 04:46:35;;;;;;;0.30;0.30;;;;;;;12.73;74.27;99751.81;5109154;28;20039;-71
2024/01/01 04:49:00;;;;;;;0.40;0.40;;;;;;;12.20;75.73;99752.97;5108981;28;20031;-73
2024/01/01 04:51:26;;;;;;;0.28;0.28;;;;;;;12.33;75.37;99749.78;5109455;28;20452;-71
2024/01/01 04:53:52;;;;;;;0.50;0.50;;;;;;;12.35;75.23;99745.75;5108832;28;20047;-72
2024/01/01 04:56:17;;;;;;;0.35;0.35;;;;;;;12.81;73.71;99749.44;5094642;28;20377;-72
2024/01/01 04:58:46;;;;;;;0.20;0.20;;;;;;;12.82;73.44;99763.69;5088799;28;20038;-72
2024/01/01 05:01:11;;;;;;;0.30;0.30;;;;;;;12.22;76.85;99761.59;5106594;28;20043;-71
2024/01/01 05:03:36;;;;;;;0.20;0.20;;;;;;;12.32;76.67;99756.25;5109137;28;20487;-72
2024/01/01 05:06:02;;;;;;;0.40;0.40;;;;;;;12.24;76.87;99767.53;5108556;28;20031;-72
2024/01/01 05:08:27;;;;;;;0.38;0.38;;;;;;;12.19;76.78;99754.84;5112591;28;20716;-72
2024/01/01 05:10:52;;;;;;;0.20;0.20;;;;;;;12.73;75.14;99763.41;5093808;28;20579;-72
2024/01/01 05:13:18;;;;;;;0.20;0.20;;;;;;;12.24;76.35;99770.22;5112101;28;20111;-73
2024/01/01 05:15:43;;;;;;;0.22;0.22;;;;;;;12.39;75.80;99770.28;5112788;28;20055;-74
2024/01/01 05:18:09;;;;;;;0.20;0.20;;;;;;;12.20;77.42;99780.72;5094055;28;20032;-72
2024/01/01 05:20:35;;;;;;;0.20;0.20;;;;;;;12.62;76.28;99764.44;5112272;28;20043;-73
2024/01/01 05:23:00;;;;;;;0.30;0.30;;;;;;;12.26;76.43;99765.38;5107351;28;20047;-74
2024/01/01 05:25:26;;;;;;;0.30;0.30;;;;;;;12.45;76.05;99766.53;5091816;28;20119;-72
2024/01/01 05:27:51;;;;;;;0.28;0.28;;;;;;;12.60;75.79;99763.13;5092693;28;20032;-71
2024/01/01 05:30:17;;;;;;;0.30;0.30;;;;;;;12.93;74.51;99776.16;5094979;28;20404;-72
2024/01/01 05:32:42;;;;;;;0.30;0.30;;;;;;;11.91;77.03;99787.53;5112623;28;20200;-71
2024/01/01 05:35:08;;;;;;;0.30;0.30;;;;;;;11.84;78.85;99784.25;5112452;28;20054;-72
2024/01/01 05:37:33;;;;;;;0.30;0.30;;;;;;;12.00;77.23;99774.41;5112149;28;20039;-74
2024/01/01 05:39:58;;;;;;;0.47;0.47;;;;;;;12.48;76.21;99787.56;5112098;28;20031;-72
2024/01/01 05:42:24;;;;;;;0.20;0.20;;;;;;;12.70;75.27;99776.59;5112401;28;20027;-73
2024/01/01 05:44:49;;;;;;;0.30;0.30;;;;;;;12.07;77.27;99791.13;5111861;28;20046;-72
2024/01/01 05:47:14;;;;;;;0.28;0.28;;;;;;;12.90;75.85;99809.84;5112075;28;20039;-72
2024/01/01 05:49:40;;;;;;;0.20;0.20;;;;;;;12.46;76.35;99810.47;5111302;28;20097;-73
2024/01/01 05:52:05;;;;;;;0.28;0.28;;;;;;;12.32;77.43;99808.22;5111352;28;20161;-73
2024/01/01 05:54:30;;;;;;;0.32;0.32;;;;;;;12.00;79.35;99829.06;5093429;28;20039;-72
2024/01/01 05:56:56;;;;;;;0.20;0.20;;;;;;;11.83;79.61;99823.00;5096716;28;20050;-71
2024/01/01 05:59:21;;;;;;;0.20;0.20;;;;;;;12.63;76.34;99811.09;5091555;28;20036;-73
2024/01/01 06:01:47;;;;;;;0.40;0.40;;;;;;;12.38;76.84;99826.06;5091235;28;20431;-72
2024/01/01 06:04:12;;;;;;;0.20;0.20;;;;;;;12.09;78.68;99816.72;5091415;28;20483;-72
2024/01/01 06:06:38;;;;;;;0.20;0.20;;;;;;;12.30;77.30;99831.94;5091831;28;20077;-71
2024/01/01 06:09:04;;;;;;;0.30;0.30;;;;;;;12.41;77.54;99827.41;5091257;28;20064;-72
2024/01/01 06:11:30;;;;;;;0.30;0.30;;;;;;;12.13;78.32;99843.94;5091175;28;20032;-72
2024/01/01 06:13:56;;;;;;;0.35;0.35;;;;;;;12.52;77.76;99825.59;5091599;28;20542;-72
2024/01/01 06:16:24;;;;;;;0.20;0.20;;;;;;;12.56;76.78;99837.47;5102624;28;20096;-73
2024/01/01 06:18:50;;;;;;;0.30;0.30;;;;;;;12.67;76.63;99841.81;5111308;28;20490;-72
2024/01/01 06:21:15;;;;;;;0.30;0.30;;;;;;;12.88;75.95;99841.66;5111676;28;20038;-73
2024/01/01 06:23:44;;;;;;;0.13;0.13;;;;;;;12.33;77.08;99849.47;5111323;28;20197;-72
2024/01/01 06:26:10;;;;;;;0.20;0.20;;;;;;;12.06;78.59;99852.25;5110947;28;20043;-73
2024/01/01 06:28:35;;;;;;;0.30;0.30;;;;;;;12.39;77.28;99848.41;5111378;28;20082;-73
2024/01/01 06:31:00;;;;;;;0.38;0.38;;;;;;;12.69;76.39;99836.97;5111006;28;20047;-72
2024/01/01 06:33:26;;;;;;;0.20;0.20;;;;;;;12.52;77.17;99856.03;5111722;28;20638;-71
2024/01/01 06:35:51;;;;;;;0.20;0.20;;;;;;;12.45;76.83;99844.69;5111203;28;20044;-71
2024/01/01 06:38:17;;;;;;;0.20;0.20;;;;;;;12.17;77.89;99862.03;5111426;28;20070;-73
2024/01/01 06:40:43;;;;;;;0.30;0.30;;;;;;;12.40;76.39;99868.91;5110960;28;20106;-73
2024/01/01 06:43:09;;;;;;;0.30;0.30;;;;;;;12.03;78.16;99866.22;5110740;28;20066;-73
2024/01/01 06:45:34;;;;;;;0.20;0.20;;;;;;;12.23;76.91;99873.63;5111699;28;20059;-72
2024/01/01 06:47:59;;;;;;;0.30;0.30;;;;;;;12.33;77.76;99871.84;5110794;28;20031;-73
2024/01/01 06:50:25;;;;;;;0.10;0.10;;;;;;;12.28;77.80;99879.88;5110865;28;20039;-73
2024/01/01 06:52:50;;;;;;;0.47;0.47;;;;;;;11.91;78.21;99883.66;5110428;28;20471;-73
2024/01/01 06:55:17;;;;;;;0.40;0.40;;;;;;;12.84;76.07;99888.25;5109502;28;20546;-74
2024/01/01 06:57:43;;;;;;;0.55;0.55;;;;;;;12.53;77.38;99899.97;5091237;28;20527;-73
2024/01/01 07:00:09;;;;;;;0.30;0.30;;;;;;;12.58;77.14;99892.72;5088989;28;20107;-71
2024/01/01 07:02:35;;;;;;;0.35;0.35;;;;;;;12.83;75.70;99892.88;5090283;28;20039;-72
2024/01/01 07:05:01;;;;;;;0.40;0.40;;;;;;;12.78;76.66;99902.78;5090262;28;20519;-72
2024/01/01 07:07:26;;;;;;;0.30;0.30;;;;;;;12.18;77.63;99905.94;5090526;28;20123;-72
2024/01/01 07:09:52;;;;;;;0.30;0.30;;;;;;;12.24;77.76;99903.00;5090620;28;20102;-72
2024/01/01 07:12:19;;;;;;;0.30;0.30;;;;;;;12.01;78.69;99919.53;5098721;28;20034;-72
2024/01/01 07:14:49;;;;;;;0.30;0.30;;;;;;;12.29;78.11;99927.28;5110125;28;20410;-71
2024/01/01 07:17:15;;;;;;;0.30;0.30;;;;;;;12.45;77.46;99936.28;5091199;28;20066;-71
2024/01/01 07:19:41;;;;;;;0.30;0.30;;;;;;;11.78;79.20;99941.41;5088391;28;20107;-71
2024/01/01 07:22:06;;;;;;;0.20;0.20;;;;;;;12.26;78.61;99940.47;5089876;28;20051;-71
2024/01/01 07:24:32;;;;;;;0.30;0.30;;;;;;;12.00;78.85;99955.63;5107858;28;20472;-72
2024/01/01 07:26:57;;;;;;;0.20;0.20;;;;;;;11.77;79.95;99960.50;5091646;28;20031;-72
2024/01/01 07:29:23;;;;;;;0.20;0.20;;;;;;;12.67;76.60;99955.84;5110066;28;20637;-72
2024/01/01 07:31:48;;;;;;;0.38;0.38;;;;;;;13.56;72.42;99944.94;5109763;28;20040;-71
2024/01/01 07:34:18;;;;;;;0.32;0.32;;;;;;;12.91;75.07;99965.13;5110007;28;20467;-72
2024/01/01 07:36:43;;;;;;;0.30;0.30;;;;;;;12.19;78.41;99972.19;5111082;28;20114;-73
2024/01/01 07:39:09;;;;;;;0.22;0.22;;;;;;;12.56;77.11;99972.22;5110329;28;20123;-71
2024/01/01 07:41:34;;;;;;;0.28;0.28;;;;;;;12.06;78.44;99972.63;5109478;28;20040;-72
2024/01/01 07:43:59;;;;;;;0.20;0.20;;;;;;;12.53;76.42;99976.25;5109920;28;20118;-72
2024/01/01 07:46:25;;;;;;;0.20;0.20;;;;;;;12.86;76.16;99973.22;5110267;28;20116;-72
2024/01/01 07:48:50;;;;;;;0.20;0.20;;;;;;;12.43;77.57;99983.44;5091372;28;20114;-73
2024/01/01 07:51:15;;;;;;;0.20;0.20;;;;;;;12.17;77.70;99998.56;5090613;28;20032;-74
2024/01/01 07:53:42;;;;;;;0.20;0.20;;;;;;;11.95;78.52;99981.69;5109713;28;20063;-73
2024/01/01 07:56:08;;;;;;;0.20;0.20;;;;;;;12.38;77.59;99995.00;5101456;28;20035;-72
2024/01/01 07:58:33;;;;;;;0.22;0.22;;;;;;;12.30;77.63;100000.84;5089323;28;20108;-71
2024/01/01 08:00:59;;;;;;;0.40;0.40;;;;;;;12.43;77.32;99999.59;5088200;28;20032;-73
2024/01/01 08:03:25;;;;;;;0.30;0.30;;;;;;;12.07;79.19;100006.53;5088394;28;20032;-73
2024/01/01 08:05:51;;;;;;;0.20;0.20;;;;;;;12.51;77.22;100010.72;5089113;28;20126;-73
2024/01/01 08:08:16;;;;;;;0.35;0.35;;;;;;;12.40;76.87;100013.59;5096107;28;20135;-73
2024/01/01 08:10:43;;;;;;;0.30;0.30;;;;;;;12.18;78.21;100016.38;5109483;28;20070;-72
2024/01/01 08:13:08;;;;;;;0.30;0.30;;;;;;;11.80;79.55;100011.13;5109312;28;20055;-71
2024/01/01 08:15:34;;;;;;;0.30;0.30;;;;;;;12.38;78.15;100029.19;5104723;28;20125;-73
2024/01/01 08:18:00;;;;;;;0.10;0.10;;;;;;;12.44;77.66;100025.47;5087471;28;20040;-73
2024/01/01 08:20:25;;;;;;;0.20;0.20;;;;;;;12.37;77.40;100023.00;5103417;28;20105;-72
2024/01/01 08:22:50;;;;;;;0.30;0.30;;;;;;;12.13;79.12;100038.66;5109230;28;20043;-72
2024/01/01 08:25:16;;;;;;;0.28;0.28;;;;;;;12.74;77.25;100049.97;5109725;28;20032;-72
2024/01/01 08:27:41;;;;;;;0.30;0.30;;;;;;;12.33;78.88;100043.44;5109693;28;20126;-72
2024/01/01 08:30:07;;;;;;;0.35;0.35;;;;;;;12.51;77.81;100050.31;5108880;28;20046;-71
2024/01/01 08:32:33;;;;;;;0.32;0.32;;;;;;;12.01;78.97;100056.06;5091572;28;20063;-73
2024/01/01 08:34:58;;;;;;;0.25;0.25;;;;;;;12.20;78.73;100054.63;5109695;28;20059;-74
2024/01/01 08:37:24;;;;;;;0.30;0.30;;;;;;;12.59;76.63;100037.19;5090754;28;20126;-72
2024/01/01 08:39:49;;;;;;;0.20;0.20;;;;;;;12.34;78.28;100042.38;5110101;28;20091;-72
2024/01/01 08:42:14;;;;;;;0.40;0.40;;;;;;;12.15;78.08;100057.25;5110984;28;20122;-71
2024/01/01 08:44:40;;;;;;;0.10;0.10;;;;;;;12.37;77.66;100055.31;5113027;28;20123;-71
2024/01/01 08:47:05;;;;;;;0.20;0.20;;;;;;;12.23;78.62;100056.81;5112939;28;20049;-71
2024/01/01 08:49:31;;;;;;;0.30;0.30;;;;;;;12.25;78.11;100065.44;5113280;28;20039;-72
2024/01/01 08:51:56;;;;;;;0.30;0.30;;;;;;;12.06;78.78;100056.09;5113165;28;20016;-71
2024/01/01 08:54:22;;;;;;;0.30;0.30;;;;;;;12.21;78.44;100064.31;5113290;28;20404;-71
2024/01/01 08:56:48;;;;;;;0.25;0.25;;;;;;;12.69;76.19;100052.63;5099146;28;20040;-72
2024/01/01 08:59:15;;;;;;;0.30;0.30;;;;;;;12.46;77.57;100063.75;5091200;28;20036;-72
2024/01/01 09:01:45;;;;;;;0.43;0.43;;;;;;;12.28;77.38;100070.34;5092292;28;20086;-72
2024/01/01 09:04:11;;;;;;;0.40;0.40;;;;;;;12.02;77.84;100073.81;5095859;28;20098;-72
2024/01/01 09:06:37;;;;;;;0.20;0.20;;;;;;;12.38;77.66;100073.13;5113313;28;20560;-72
2024/01/01 09:09:02;;;;;;;0.32;0.32;;;;;;;11.90;78.96;100070.47;5113053;28;20094;-71
2024/01/01 09:11:28;;;;;;;0.30;0.30;;;;;;;12.16;77.71;100070.50;5112824;28;20415;-72
2024/01/01 09:13:53;;;;;;;0.30;0.30;;;;;;;12.43;77.60;100073.16;5112874;28;20119;-71
2024/01/01 09:16:19;;;;;;;0.20;0.20;;;;;;;12.83;76.64;100078.09;5093233;28;20104;-72
2024/01/01 09:18:44;;;;;;;0.20;0.20;;;;;;;12.89;75.57;100077.06;5113844;28;20106;-71
2024/01/01 09:21:14;;;;;;;0.30;0.30;;;;;;;12.81;75.73;100088.31;5112389;28;20042;-72
2024/01/01 09:23:39;;;;;;;0.30;0.30;;;;;;;12.55;75.76;100098.06;5112633;28;20044;-71
2024/01/01 09:26:05;;;;;;;0.30;0.30;;;;;;;12.39;76.47;100101.69;5112489;28;20032;-72
2024/01/01 09:28:31;;;;;;;0.40;0.40;;;;;;;12.45;76.23;100108.75;5112363;28;20051;-70
2024/01/01 09:30:57;;;;;;;0.20;0.20;;;;;;;13.28;74.45;100105.41;5111916;28;20081;-72
2024/01/01 09:33:22;;;;;;;0.20;0.20;;;;;;;12.55;75.98;100108.84;5112540;28;20698;-74
2024/01/01 09:35:48;;;;;;;0.20;0.20;;;;;;;12.48;76.63;100137.88;5112240;28;20043;-73
2024/01/01 09:38:13;;;;;;;0.25;0.25;;;;;;;12.83;75.01;100148.19;5112538;28;20032;-72
2024/01/01 09:40:38;;;;;;;0.20;0.20;;;;;;;12.46;77.03;100139.22;5111912;28;20043;-72
2024/01/01 09:43:04;;;;;;;0.30;0.30;;;;;;;13.34;72.79;100155.63;5093316;28;20031;-72
2024/01/01 09:45:31;;;;;;;0.30;0.30;;;;;;;13.27;74.90;100162.34;5112673;28;20607;-73
2024/01/01 09:47:56;;;;;;;0.30;0.30;;;;;;;13.23;74.46;100168.22;5093469;28;20039;-73
2024/01/01 09:50:21;;;;;;;0.30;0.30;;;;;;;12.93;76.15;100165.25;5112035;28;20486;-72
2024/01/01 09:52:57;;;;;;;0.30;0.30;;;;;;;12.38;78.94;100174.69;5092503;28;20127;-72
2024/01/01 09:55:22;;;;;;;0.20;0.20;;;;;;;11.80;79.85;100176.16;5092046;28;20491;-73
2024/01/01 09:57:48;;;;;;;0.20;0.20;;;;;;;12.83;77.22;100167.06;5091838;28;20157;-72
2024/01/01 10:00:39;;;;;;;0.20;0.20;;;;;;;12.54;78.51;100160.31;5093420;28;20062;-73
2024/01/01 10:03:11;;;;;;;0.20;0.20;;;;;;;12.50;77.75;100172.66;5091026;28;20229;-73
2024/01/01 10:05:40;;;;;;;0.30;0.30;;;;;;;12.48;78.18;100175.59;5111959;28;20032;-72
2024/01/01 10:08:08;;;;;;;0.30;0.30;;;;;;;12.42;77.81;100195.50;5111737;28;20039;-73
2024/01/01 10:10:33;;;;;;;0.20;0.20;;;;;;;12.38;77.55;100187.09;5111650;28;20036;-72
2024/01/01 10:13:09;;;;;;;0.38;0.38;;;;;;;12.54;77.68;100182.66;5111490;28;20034;-77
2024/01/01 10:15:38;;;;;;;0.30;0.30;;;;;;;12.81;76.49;100177.28;5104126;28;20065;-75
2024/01/01 10:18:11;;;;;;;0.30;0.30;;;;;;;12.87;76.51;100184.34;5087697;28;20032;-75
2024/01/01 10:20:38;;;;;;;0.22;0.22;;;;;;;12.54;77.69;100195.34;5105513;28;20032;-74
2024/01/01 10:23:25;;;;;;;0.20;0.20;;;;;;;13.12;76.47;100196.22;5106189;28;20148;-75
2024/01/01 10:26:12;;;;;;;0.40;0.40;;;;;;;12.91;77.68;100190.88;5102448;28;20064;-74
2024/01/01 10:28:40;;;;;;;0.20;0.20;;;;;;;12.67;76.81;100193.06;5105847;28;20035;-74
2024/01/01 10:31:06;;;;;;;0.20;0.20;;;;;;;13.01;76.88;100186.34;5087362;28;20023;-72
2024/01/01 10:33:33;;;;;;;0.32;0.32;;;;;;;13.28;75.05;100196.31;5105693;28;20027;-72
2024/01/01 10:36:03;;;;;;;0.30;0.30;;;;;;;12.43;77.46;100210.59;5108346;28;20571;-72
2024/01/01 10:38:30;;;;;;;0.28;0.28;;;;;;;12.48;76.70;100209.84;5102243;28;20143;-72
2024/01/01 10:40:56;;;;;;;0.40;0.40;;;;;;;12.68;76.15;100223.50;5101305;28;20083;-72
2024/01/01 10:43:25;;;;;;;0.28;0.28;;;;;;;12.62;77.39;100208.38;5101366;28;20377;-72
2024/01/01 10:45:54;;;;;;;0.30;0.30;;;;;;;12.83;76.01;100207.50;5101035;28;20031;-71
2024/01/01 10:48:22;;;;;;;0.30;0.30;;;;;;;12.55;77.04;100215.84;5080083;28;20060;-71
2024/01/01 10:51:24;;;;;;;0.20;0.20;;;;;;;13.73;73.38;100218.22;5101647;28;20040;-71
2024/01/01 10:54:02;;;;;;;0.28;0.28;;;;;;;12.68;75.06;100227.03;5025820;28;20072;-70
2024/01/01 10:56:36;;;;;;;0.20;0.20;;;;;;;12.88;74.58;100218.31;5024795;28;20034;-71
2024/01/01 10:59:19;;;;;;;0.20;0.20;;;;;;;12.80;74.11;100219.59;5027007;28;20485;-71
2024/01/01 11:01:50;;;;;;;0.30;0.30;;;;;;;12.78;73.33;100218.22;5016308;28;20068;-71
2024/01/01 11:04:19;;;;;;;;;;;;;;;13.25;72.70;100221.94;5025463;28;20119;-71
2024/01/01 11:06:44;;;;;;;0.30;0.30;;;;;;;12.90;73.60;100230.50;5025471;28;19920;-71
2024/01/01 11:09:19;;;;;;;0.43;0.43;;;;;;;13.63;71.78;100232.47;5024580;28;20493;-72
2024/01/01 11:11:48;;;;;;;0.38;0.38;;;;;;;13.57;70.60;100246.19;5027228;28;20053;-71
2024/01/01 11:14:27;;;;;;;0.30;0.30;;;;;;;13.12;72.95;100241.25;5024533;28;20073;-71
2024/01/01 11:16:53;;;;;;;0.20;0.20;;;;;;;13.00;73.52;100248.66;5024490;28;20041;-70
2024/01/01 11:19:38;;;;;;;0.20;0.20;;;;;;;13.46;72.89;100252.59;5025728;28;20129;-70
2024/01/01 11:22:23;;;;;;;0.30;0.30;;;;;;;13.12;73.71;100252.88;5024348;28;20517;-70
2024/01/01 11:24:50;;;;;;;0.20;0.20;;;;;;;13.72;71.10;100243.63;5022566;28;20535;-70
2024/01/01 11:27:32;;;;;;;0.50;0.50;;;;;;;14.05;70.66;100248.69;5025963;28;20471;-68
2024/01/01 11:30:04;;;;;;;0.30;0.30;;;;;;;13.27;72.09;100260.25;5047054;28;20038;-69